Terminal Aerodrome Forecast
Issued by NWS

Home | Current Version | Previous Version | Text Only | Print | Product List | Glossary On
Versions: 1 2 3 4 5 6 7 8 9 10 11 12 13 14 15 16 17 18 19 20 21
259
FTUS44 KLZK 231131
TAFBPK
TAF
KBPK 231131Z 2312/2412 VRB05KT P6SM VCSH BKN100
      TEMPO 2312/2313 5SM BR FEW005
     FM231500 29008KT P6SM SCT100
     FM231800 30009G20KT P6SM SCT250
     FM240100 32010G22KT P6SM SCT100 SCT250=

USA.gov is the U.S. government's official web portal to all federal, state and local government web resources and services.